^^
Meteo Knjazevac Station Historical Data
Daily Summary for August 12, 2021 Units:  English    Metric   Both
Daily Weekly Monthly Yearly Custom
  High: Low: Average:
Temperature: 54.7 °F 24.6 °F 32.8 °F
Dew Point: 44.7 °F 24.1 °F 30.7 °F
Humidity: 99% 69% 93%
Wind Speed: 6mph 0mph 1.1mph
Wind Gust: 10mph - -
Wind- - SSW
Pressure: 30.33 in 30.21 in -
Precipitation: 0.00 in    
Historical Graphs
 
 
Tabular Data for August 12, 2021
Time Temperature Dew Point Pressure Wind Wind Speed Wind Gust Humidity Rainfall Rate (Hourly) solar Conditions
00:00 28.9 °F 28.4 °F 30.33 in WNW 1 mph 4 mph 98% 0.00 in 0 W/m2
00:10 28.8 °F 28.3 °F 30.33 in WNW 1 mph 2 mph 98% 0.00 in 0 W/m2
00:20 28.6 °F 27.6 °F 30.33 in WNW 1 mph 2 mph 96% 0.00 in 0 W/m2
00:30 28.2 °F 27.2 °F 30.33 in WNW 2 mph 5 mph 96% 0.00 in 0 W/m2
00:40 28.2 °F 27.7 °F 30.33 in WNW 2 mph 3 mph 98% 0.00 in 0 W/m2
00:50 28 °F 27.5 °F 30.32 in WNW 1 mph 2 mph 98% 0.00 in 0 W/m2
01:00 27.9 °F 27.4 °F 30.32 in Calm   2 mph 98% 0.00 in 0 W/m2
01:10 27.9 °F 27.4 °F 30.32 in NW 1 mph 2 mph 98% 0.00 in 0 W/m2
01:20 27.5 °F 27 °F 30.32 in NW 1 mph 3 mph 98% 0.00 in 0 W/m2
01:30 27.5 °F 27 °F 30.32 in Calm   2 mph 98% 0.00 in 0 W/m2
01:40 27.3 °F 26.8 °F 30.32 in West 2 mph 3 mph 98% 0.00 in 0 W/m2
01:50 27.1 °F 26.7 °F 30.32 in WNW 2 mph 4 mph 98% 0.00 in 0 W/m2
02:00 27 °F 26.5 °F 30.32 in NW 1 mph 3 mph 98% 0.00 in 0 W/m2
02:10 26.8 °F 26.3 °F 30.31 in NW 1 mph 2 mph 98% 0.00 in 0 W/m2
02:20 26.6 °F 26.1 °F 30.31 in Calm   2 mph 98% 0.00 in 0 W/m2
02:30 26.4 °F 25.4 °F 30.31 in Calm   2 mph 96% 0.00 in 0 W/m2
02:40 26.2 °F 25.5 °F 30.31 in Calm   2 mph 97% 0.00 in 0 W/m2
02:50 26.2 °F 25.8 °F 30.30 in Calm   2 mph 98% 0.00 in 0 W/m2
03:00 26.1 °F 25.6 °F 30.30 in WNW 1 mph 2 mph 98% 0.00 in 0 W/m2
03:10 26.1 °F 25.6 °F 30.30 in WNW 2 mph 3 mph 98% 0.00 in 0 W/m2
03:20 26.1 °F 25.6 °F 30.30 in West 1 mph 2 mph 98% 0.00 in 0 W/m2
03:30 25.9 °F 25.4 °F 30.30 in NW 1 mph 3 mph 98% 0.00 in 0 W/m2
03:40 25.7 °F 25.2 °F 30.30 in NNW 1 mph 2 mph 98% 0.00 in 0 W/m2
03:50 25.6 °F 25.2 °F 30.30 in Calm   2 mph 98% 0.00 in 0 W/m2
04:00 25.3 °F 24.9 °F 30.30 in West 1 mph 2 mph 98% 0.00 in 0 W/m2
04:10 25.2 °F 24.7 °F 30.30 in West 1 mph 3 mph 98% 0.00 in 0 W/m2
04:20 25.2 °F 24.7 °F 30.29 in WNW 1 mph 3 mph 98% 0.00 in 0 W/m2
04:30 25.2 °F 24.7 °F 30.29 in WNW 1 mph 3 mph 98% 0.00 in 0 W/m2
04:40 25 °F 24.5 °F 30.29 in WNW 1 mph 2 mph 98% 0.00 in 0 W/m2
04:50 24.8 °F 24.3 °F 30.29 in WNW 1 mph 2 mph 98% 0.00 in 0 W/m2
05:00 24.6 °F 24.1 °F 30.29 in WNW 1 mph 3 mph 98% 0.00 in 0 W/m2
05:10 24.6 °F 24.1 °F 30.29 in WNW 1 mph 2 mph 98% 0.00 in 0 W/m2
05:20 24.8 °F 24.3 °F 30.29 in West 1 mph 2 mph 98% 0.00 in 0 W/m2
05:30 24.6 °F 24.1 °F 30.28 in WNW 1 mph 2 mph 98% 0.00 in 0 W/m2
05:40 24.8 °F 24.6 °F 30.29 in NW 2 mph 3 mph 99% 0.00 in 0 W/m2
05:50 25.2 °F 24.9 °F 30.28 in Calm   2 mph 99% 0.00 in 0 W/m2
06:00 25.2 °F 24.9 °F 30.28 in Calm   2 mph 99% 0.00 in 0 W/m2
06:10 25.1 °F 24.9 °F 30.28 in NNW 1 mph 2 mph 99% 0.00 in 0 W/m2
06:20 25 °F 24.7 °F 30.29 in Calm   2 mph 99% 0.00 in 0 W/m2
06:30 25 °F 24.5 °F 30.29 in NW 1 mph 2 mph 98% 0.00 in 9 W/m2
06:40 25 °F 24.5 °F 30.29 in West 1 mph 2 mph 98% 0.00 in 16 W/m2
06:50 24.8 °F 24.3 °F 30.29 in WNW 1 mph 2 mph 98% 0.00 in 33 W/m2
07:00 25.1 °F 24.8 °F 30.29 in NW 1 mph 3 mph 99% 0.00 in 51 W/m2
07:10 25.3 °F 25.1 °F 30.29 in Calm   1 mph 99% 0.00 in 70 W/m2
07:20 25.6 °F 25.4 °F 30.29 in Calm   2 mph 99% 0.00 in 74 W/m2
07:30 26.1 °F 25.8 °F 30.29 in NW 1 mph 2 mph 99% 0.00 in 95 W/m2
07:40 26.8 °F 26.5 °F 30.29 in Calm   1 mph 99% 0.00 in 111 W/m2
07:50 27.5 °F 27.3 °F 30.29 in Calm   1 mph 99% 0.00 in 123 W/m2
08:00 28.3 °F 28.1 °F 30.29 in Calm   1 mph 99% 0.00 in 143 W/m2
08:10 29.4 °F 29.1 °F 30.29 in Calm   2 mph 99% 0.00 in 140 W/m2
08:20 30.1 °F 29.8 °F 30.28 in Calm   2 mph 99% 0.00 in 163 W/m2
08:30 30.9 °F 30.7 °F 30.28 in NW 1 mph 2 mph 99% 0.00 in 180 W/m2
08:40 31.8 °F 31.6 °F 30.28 in Calm   2 mph 99% 0.00 in 222 W/m2
08:50 32.9 °F 32.7 °F 30.28 in Calm   2 mph 99% 0.00 in 250 W/m2
09:00 34 °F 33.7 °F 30.28 in North 1 mph 3 mph 99% 0.00 in 271 W/m2
09:10 35.1 °F 34.6 °F 30.27 in North 1 mph 4 mph 98% 0.00 in 323 W/m2
09:30 37.9 °F 36.6 °F 30.27 in North 2 mph 5 mph 95% 0.00 in 354 W/m2
09:40 39.5 °F 37.6 °F 30.27 in ESE 1 mph 5 mph 93% 0.00 in 368 W/m2
09:50 40.5 °F 37.8 °F 30.27 in NE 1 mph 5 mph 90% 0.00 in 344 W/m2
10:00 41.4 °F 38.4 °F 30.27 in NE 1 mph 7 mph 89% 0.00 in 372 W/m2
10:10 42.4 °F 39.4 °F 30.27 in NNE 1 mph 5 mph 89% 0.00 in 360 W/m2
10:20 43.2 °F 39.3 °F 30.26 in NE 2 mph 7 mph 86% 0.00 in 305 W/m2
10:30 43.7 °F 39.5 °F 30.26 in NNE 1 mph 7 mph 85% 0.00 in 394 W/m2
10:40 44.5 °F 40 °F 30.26 in NNE 1 mph 5 mph 84% 0.00 in 366 W/m2
10:50 45.5 °F 40.6 °F 30.26 in NE 2 mph 6 mph 83% 0.00 in 428 W/m2
11:00 46.6 °F 41.1 °F 30.25 in NE 2 mph 6 mph 81% 0.00 in 430 W/m2
11:10 47.7 °F 41.9 °F 30.25 in NNE 2 mph 5 mph 80% 0.00 in 431 W/m2
11:20 48.8 °F 42.3 °F 30.25 in NNE 3 mph 7 mph 78% 0.00 in 275 W/m2
11:30 49.5 °F 42.3 °F 30.24 in NNE 3 mph 10 mph 76% 0.00 in 253 W/m2
11:40 50.5 °F 42.9 °F 30.24 in NNE 3 mph 7 mph 75% 0.00 in 376 W/m2
11:50 51.1 °F 42.7 °F 30.23 in NNE 2 mph 6 mph 73% 0.00 in 212 W/m2
12:00 51.5 °F 43.2 °F 30.23 in North 2 mph 5 mph 73% 0.00 in 179 W/m2
12:10 52.2 °F 43.8 °F 30.22 in NE 3 mph 8 mph 73% 0.00 in 292 W/m2
12:20 53.1 °F 44.3 °F 30.22 in North 2 mph 6 mph 72% 0.00 in 178 W/m2
12:30 53.4 °F 43.9 °F 30.22 in North 2 mph 6 mph 70% 0.00 in 256 W/m2
12:40 53.8 °F 44.2 °F 30.22 in NE 6 mph 9 mph 70% 0.00 in 375 W/m2
12:50 54.3 °F 44.4 °F 30.21 in NE 1 mph 8 mph 69% 0.00 in 362 W/m2
13:00 54.7 °F 44.7 °F 30.21 in North 1 mph 7 mph 69% 0.00 in 315 W/m2
Knjazevac, Serbia
Compliments of Weather Underground - 2 mb